createdAt,value
2022-09-16T00:00:28.031Z,0.00
2022-09-16T00:05:16.903Z,0.00
2022-09-16T00:10:23.005Z,0.00
2022-09-16T00:15:29.347Z,0.00
2022-09-16T00:20:18.066Z,0.00
2022-09-16T00:25:24.101Z,0.00
2022-09-16T00:30:30.220Z,0.00
2022-09-16T00:35:19.223Z,0.00
2022-09-16T00:40:25.555Z,0.00
2022-09-16T00:45:31.373Z,0.00
2022-09-16T00:50:20.459Z,0.00
2022-09-16T00:55:26.446Z,0.00
2022-09-16T01:00:32.648Z,0.00
2022-09-16T01:05:20.627Z,0.00
2022-09-16T01:10:26.743Z,0.00
2022-09-16T01:15:15.803Z,0.00
2022-09-16T01:20:21.843Z,0.00
2022-09-16T01:25:27.883Z,0.00
2022-09-16T01:30:16.983Z,0.00
2022-09-16T01:35:23.011Z,0.00
2022-09-16T01:40:29.314Z,0.00
2022-09-16T01:45:18.198Z,0.00
2022-09-16T01:50:24.315Z,0.00
2022-09-16T01:55:30.290Z,0.00
2022-09-16T02:00:19.346Z,0.00
2022-09-16T02:05:25.486Z,0.00
2022-09-16T02:10:31.455Z,0.00
2022-09-16T02:15:20.578Z,0.00
2022-09-16T02:20:26.778Z,0.00
2022-09-16T02:25:32.659Z,0.00
2022-09-16T02:30:21.686Z,0.00
2022-09-16T02:35:27.790Z,0.00
2022-09-16T02:40:16.813Z,0.00
2022-09-16T02:45:22.090Z,0.00
2022-09-16T02:50:27.992Z,0.00
2022-09-16T02:55:17.074Z,0.00
2022-09-16T03:00:23.106Z,0.00
2022-09-16T03:05:28.687Z,0.00
2022-09-16T03:10:17.763Z,0.00
2022-09-16T03:15:23.815Z,0.00
2022-09-16T03:20:30.030Z,0.00
2022-09-16T03:25:18.876Z,0.00
2022-09-16T03:30:25.001Z,0.00
2022-09-16T03:35:31.026Z,0.00
2022-09-16T03:40:19.844Z,0.00
2022-09-16T03:45:25.808Z,0.00
2022-09-16T03:50:31.801Z,0.00
2022-09-16T03:55:20.765Z,0.00
2022-09-16T04:00:26.845Z,0.00
2022-09-16T04:05:15.971Z,0.00
2022-09-16T04:10:22.046Z,0.00
2022-09-16T04:15:28.224Z,0.00
2022-09-16T04:20:17.126Z,0.00
2022-09-16T04:25:23.233Z,0.00
2022-09-16T04:30:29.276Z,0.00
2022-09-16T04:35:18.305Z,0.00
2022-09-16T04:40:24.597Z,0.00
2022-09-16T04:45:30.650Z,0.02
2022-09-16T04:50:19.655Z,0.09
2022-09-16T04:55:25.729Z,0.46
2022-09-16T05:00:31.843Z,2.54
2022-09-16T05:05:20.747Z,4.74
2022-09-16T05:10:26.887Z,4.89
2022-09-16T05:15:15.842Z,5.36
2022-09-16T05:20:21.989Z,5.15
2022-09-16T05:25:27.995Z,6.36
2022-09-16T05:30:17.084Z,10.45
2022-09-16T05:35:23.084Z,21.26
2022-09-16T05:40:29.480Z,26.45
2022-09-16T05:45:24.176Z,21.87
2022-09-16T05:50:25.483Z,24.43
2022-09-16T05:55:30.510Z,32.56
2022-09-16T06:00:19.570Z,37.71
2022-09-16T06:05:25.608Z,47.09
2022-09-16T06:10:31.689Z,40.52
2022-09-16T06:15:20.735Z,40.96
2022-09-16T06:20:26.705Z,47.87
2022-09-16T06:25:32.818Z,70.29
2022-09-16T06:30:21.817Z,93.02
2022-09-16T06:35:27.961Z,71.54
2022-09-16T06:40:16.359Z,72.22
2022-09-16T06:45:22.369Z,80.18
2022-09-16T06:50:28.413Z,91.53
2022-09-16T06:55:17.461Z,106.00
2022-09-16T07:00:23.522Z,103.23
2022-09-16T07:05:29.008Z,76.03
2022-09-16T07:10:18.057Z,85.23
2022-09-16T07:15:24.154Z,94.91
2022-09-16T07:20:30.216Z,100.77
2022-09-16T07:25:19.224Z,120.83
2022-09-16T07:30:25.494Z,134.72
2022-09-16T07:35:31.399Z,127.40
2022-09-16T07:40:20.178Z,125.67
2022-09-16T07:45:26.215Z,147.81
2022-09-16T07:50:32.282Z,162.24
2022-09-16T07:55:21.344Z,141.14
2022-09-16T08:00:27.332Z,138.95
2022-09-16T08:05:16.449Z,136.08
2022-09-16T08:10:22.533Z,169.36
2022-09-16T08:15:28.634Z,241.18
2022-09-16T08:20:17.659Z,367.26
2022-09-16T08:25:23.977Z,242.76
2022-09-16T08:30:29.738Z,356.87
2022-09-16T08:35:18.804Z,280.51
2022-09-16T08:40:23.847Z,355.66
2022-09-16T08:45:30.008Z,342.80
2022-09-16T08:50:18.942Z,455.43
2022-09-16T08:55:25.189Z,206.40
2022-09-16T09:00:31.990Z,218.76
2022-09-16T09:05:20.099Z,274.67
2022-09-16T09:10:26.132Z,231.68
2022-09-16T09:15:32.256Z,196.77
2022-09-16T09:20:21.418Z,275.89
2022-09-16T09:25:27.354Z,286.48
2022-09-16T09:30:16.388Z,332.16
2022-09-16T09:35:22.410Z,354.04
2022-09-16T09:40:28.435Z,262.56
2022-09-16T09:45:17.354Z,214.49
2022-09-16T09:50:23.492Z,216.81
2022-09-16T09:55:29.504Z,222.21
2022-09-16T10:00:18.620Z,255.84
2022-09-16T10:05:24.608Z,276.56
2022-09-16T10:10:30.704Z,265.45
2022-09-16T10:15:19.673Z,349.82
2022-09-16T10:20:25.762Z,387.84
2022-09-16T10:25:31.937Z,357.06
2022-09-16T10:30:20.854Z,233.32
2022-09-16T10:35:26.962Z,209.38
2022-09-16T10:40:32.116Z,189.32
2022-09-16T10:45:21.103Z,338.95
2022-09-16T10:50:27.171Z,222.66
2022-09-16T10:55:16.254Z,242.91
2022-09-16T11:00:22.278Z,243.60
2022-09-16T11:05:28.696Z,125.87
2022-09-16T11:10:17.739Z,99.13
2022-09-16T11:15:23.756Z,90.93
2022-09-16T11:20:29.818Z,91.92
2022-09-16T11:25:18.954Z,130.79
2022-09-16T11:30:25.294Z,187.58
2022-09-16T11:35:31.055Z,190.46
2022-09-16T11:40:19.902Z,237.57
2022-09-16T11:45:25.870Z,275.63
2022-09-16T11:50:31.931Z,261.99
2022-09-16T11:55:21.034Z,245.01
2022-09-16T12:00:27.033Z,218.49
2022-09-16T12:05:16.062Z,137.64
2022-09-16T12:10:22.156Z,99.31
2022-09-16T12:15:28.266Z,97.53
2022-09-16T12:20:17.180Z,109.23
2022-09-16T12:25:23.511Z,86.36
2022-09-16T12:30:29.407Z,105.96
2022-09-16T12:35:18.472Z,235.05
2022-09-16T12:40:23.749Z,296.94
2022-09-16T12:45:29.761Z,199.58
2022-09-16T12:50:18.722Z,139.21
2022-09-16T12:55:24.846Z,196.13
2022-09-16T13:00:30.885Z,233.16
2022-09-16T13:05:20.044Z,234.37
2022-09-16T13:10:46.914Z,382.07
2022-09-16T13:15:32.307Z,519.02
2022-09-16T13:20:21.195Z,538.47
2022-09-16T13:25:27.352Z,469.22
2022-09-16T13:30:16.309Z,426.32
2022-09-16T13:35:22.505Z,258.85
2022-09-16T13:40:28.650Z,411.30
2022-09-16T13:45:21.947Z,395.71
2022-09-16T13:50:23.612Z,401.66
2022-09-16T13:55:29.652Z,421.79
2022-09-16T14:00:18.789Z,428.15
2022-09-16T14:05:23.967Z,401.42
2022-09-16T14:10:30.095Z,364.86
2022-09-16T14:15:19.125Z,348.04
2022-09-16T14:20:25.210Z,330.60
2022-09-16T14:25:31.266Z,338.40
2022-09-16T14:30:20.291Z,241.97
2022-09-16T14:35:26.365Z,279.33
2022-09-16T14:40:32.500Z,289.52
2022-09-16T14:45:21.382Z,309.06
2022-09-16T14:50:27.486Z,299.34
2022-09-16T14:55:16.505Z,253.59
2022-09-16T15:00:22.628Z,101.62
2022-09-16T15:05:28.362Z,58.11
2022-09-16T15:10:17.490Z,54.02
2022-09-16T15:15:23.473Z,62.40
2022-09-16T15:20:29.566Z,71.16
2022-09-16T15:25:18.590Z,84.43
2022-09-16T15:30:24.732Z,71.44
2022-09-16T15:35:30.736Z,53.13
2022-09-16T15:40:19.200Z,73.68
2022-09-16T15:45:25.148Z,78.81
2022-09-16T15:50:31.273Z,85.60
2022-09-16T15:55:21.236Z,93.62
2022-09-16T16:00:26.354Z,58.37
2022-09-16T16:05:31.459Z,49.44
2022-09-16T16:10:20.528Z,49.29
2022-09-16T16:15:26.726Z,50.21
2022-09-16T16:20:15.690Z,52.87
2022-09-16T16:25:21.665Z,62.77
2022-09-16T16:30:27.795Z,62.64
2022-09-16T16:35:16.743Z,38.00
2022-09-16T16:40:23.331Z,31.58
2022-09-16T16:45:29.109Z,24.01
2022-09-16T16:50:18.164Z,19.39
2022-09-16T16:55:24.227Z,12.50
2022-09-16T17:00:30.304Z,7.67
2022-09-16T17:05:19.359Z,3.92
2022-09-16T17:10:25.512Z,1.55
2022-09-16T17:15:31.552Z,0.82
2022-09-16T17:20:20.571Z,0.02
2022-09-16T17:25:26.611Z,0.00
2022-09-16T17:30:32.757Z,0.00
2022-09-16T17:35:21.713Z,0.00
2022-09-16T17:40:27.089Z,0.00
2022-09-16T17:45:15.900Z,0.00
2022-09-16T17:50:23.075Z,0.00
2022-09-16T17:55:28.057Z,0.00
2022-09-16T18:00:17.247Z,0.00
2022-09-16T18:05:26.714Z,0.00
2022-09-16T18:10:29.349Z,0.00
2022-09-16T18:15:18.326Z,0.00
2022-09-16T18:20:24.466Z,0.00
2022-09-16T18:25:30.459Z,0.00
2022-09-16T18:30:19.554Z,0.00
2022-09-16T18:35:25.619Z,0.00
2022-09-16T18:40:30.919Z,0.00
2022-09-16T18:45:19.773Z,0.00
2022-09-16T18:50:25.907Z,0.00
2022-09-16T18:55:31.947Z,0.00
2022-09-16T19:00:20.985Z,0.00
2022-09-16T19:05:27.863Z,0.00
2022-09-16T19:10:16.164Z,0.00
2022-09-16T19:15:22.172Z,0.00
2022-09-16T19:20:28.309Z,0.00
2022-09-16T19:25:17.297Z,0.00
2022-09-16T19:30:23.438Z,0.00
2022-09-16T19:35:29.641Z,0.00
2022-09-16T19:40:18.553Z,0.00
2022-09-16T19:45:27.799Z,0.00
2022-09-16T19:50:30.607Z,0.00
2022-09-16T19:55:19.731Z,0.00
2022-09-16T20:00:36.743Z,0.00
2022-09-16T20:05:30.954Z,0.00
2022-09-16T20:10:19.929Z,0.00
2022-09-16T20:15:26.023Z,0.00
2022-09-16T20:20:32.044Z,0.00
2022-09-16T20:25:23.470Z,0.00
2022-09-16T20:30:27.155Z,0.00
2022-09-16T20:35:16.227Z,0.00
2022-09-16T20:40:22.459Z,0.00
2022-09-16T20:45:28.385Z,0.00
2022-09-16T20:50:17.309Z,0.00
2022-09-16T20:55:23.411Z,0.00
2022-09-16T21:00:29.784Z,0.00
2022-09-16T21:05:17.614Z,0.00
2022-09-16T21:10:23.625Z,0.00
2022-09-16T21:15:29.723Z,0.00
2022-09-16T21:20:18.716Z,0.00
2022-09-16T21:25:24.850Z,0.00
2022-09-16T21:30:30.856Z,0.00
2022-09-16T21:35:19.900Z,0.00
2022-09-16T21:40:26.480Z,0.00
2022-09-16T21:45:32.050Z,0.00
2022-09-16T21:50:21.048Z,0.00
2022-09-16T21:55:27.178Z,0.00
2022-09-16T22:00:16.295Z,0.00
2022-09-16T22:05:22.417Z,0.00
2022-09-16T22:10:28.398Z,0.00
2022-09-16T22:15:17.500Z,0.00
2022-09-16T22:20:23.514Z,0.00
2022-09-16T22:25:29.589Z,0.00
2022-09-16T22:30:18.589Z,0.00
2022-09-16T22:35:24.691Z,0.00
2022-09-16T22:40:30.147Z,0.00
2022-09-16T22:45:18.878Z,0.00
2022-09-16T22:50:25.145Z,0.00
2022-09-16T22:55:30.998Z,0.00
2022-09-16T23:00:20.066Z,0.00
2022-09-16T23:05:26.162Z,0.00
2022-09-16T23:10:32.255Z,0.00
2022-09-16T23:15:21.227Z,0.00
2022-09-16T23:20:27.387Z,0.00
2022-09-16T23:25:16.372Z,0.00
2022-09-16T23:30:22.491Z,0.00
2022-09-16T23:35:28.496Z,0.00
2022-09-16T23:40:16.747Z,0.00
2022-09-16T23:45:22.615Z,0.00
2022-09-16T23:50:28.745Z,0.00
2022-09-16T23:55:17.736Z,0.00
